createdAt,value
2019-02-28T15:09:54.751Z,20.66
2019-02-28T15:10:55.168Z,20.60
2019-02-28T15:11:54.338Z,20.55
2019-02-28T15:12:55.351Z,20.45
2019-02-28T15:13:54.404Z,20.40
2019-02-28T15:14:54.373Z,20.37
2019-02-28T15:15:54.613Z,20.31
2019-02-28T15:16:54.367Z,20.18
2019-02-28T15:17:54.368Z,20.14
2019-02-28T15:18:54.375Z,20.11
2019-02-28T15:19:57.068Z,20.09
2019-02-28T15:20:54.428Z,20.06
2019-02-28T15:21:54.440Z,20.04
2019-02-28T15:22:56.168Z,20.02
2019-02-28T15:23:54.417Z,19.98
2019-02-28T15:24:54.429Z,19.96
2019-02-28T15:25:54.983Z,19.94
2019-02-28T15:26:54.480Z,19.89
2019-02-28T15:27:54.511Z,19.87
2019-02-28T15:28:54.437Z,19.85
2019-02-28T15:29:55.511Z,19.82
2019-02-28T15:30:54.478Z,19.76
2019-02-28T15:31:54.495Z,19.73
2019-02-28T15:32:55.599Z,19.67
2019-02-28T15:33:54.331Z,19.63
2019-02-28T15:34:54.514Z,19.58
2019-02-28T15:35:54.546Z,19.55
2019-02-28T15:36:55.526Z,19.52
2019-02-28T15:37:54.353Z,19.44
2019-02-28T15:38:54.351Z,19.40
2019-02-28T15:39:54.736Z,19.34
2019-02-28T15:40:55.765Z,19.27
2019-02-28T15:41:54.390Z,19.20
2019-02-28T15:42:54.790Z,19.19
2019-02-28T15:43:54.464Z,19.13
2019-02-28T15:44:54.376Z,19.07
2019-02-28T15:45:54.386Z,18.98
2019-02-28T15:46:55.751Z,18.98
2019-02-28T15:47:55.430Z,18.94
2019-02-28T15:48:54.488Z,18.92
2019-02-28T15:49:54.415Z,18.98
2019-02-28T15:50:54.416Z,18.96
2019-02-28T15:51:54.418Z,18.97
2019-02-28T15:52:54.474Z,18.96
2019-02-28T15:53:54.719Z,18.90
2019-02-28T15:54:56.942Z,18.85
2019-02-28T15:55:54.454Z,18.80
2019-02-28T15:56:55.429Z,18.79
2019-02-28T15:57:54.482Z,18.75
2019-02-28T15:58:54.483Z,18.73
2019-02-28T15:59:54.518Z,18.73
2019-02-28T16:00:56.643Z,18.71
2019-02-28T16:01:54.494Z,18.63
2019-02-28T16:02:54.557Z,18.56
2019-02-28T16:03:54.552Z,18.54
2019-02-28T16:04:57.734Z,18.52
2019-02-28T16:05:56.216Z,18.43
2019-02-28T16:06:57.928Z,18.47
2019-02-28T16:07:54.362Z,18.45
2019-02-28T16:08:54.359Z,18.38
2019-02-28T16:09:57.031Z,18.31
2019-02-28T16:10:54.439Z,18.22
2019-02-28T16:11:54.572Z,18.26
2019-02-28T16:12:54.354Z,18.22
2019-02-28T16:13:54.379Z,18.12
2019-02-28T16:14:54.476Z,18.02
2019-02-28T16:15:54.449Z,17.90
2019-02-28T16:16:56.815Z,17.79
2019-02-28T16:17:54.407Z,17.78
2019-02-28T16:18:54.401Z,17.77
2019-02-28T16:19:56.190Z,17.70
2019-02-28T16:20:54.454Z,17.55
2019-02-28T16:21:54.463Z,17.52
2019-02-28T16:22:54.468Z,17.44
2019-02-28T16:23:54.504Z,17.36
2019-02-28T16:24:54.456Z,17.25
2019-02-28T16:25:54.471Z,17.18
2019-02-28T16:26:56.696Z,17.13
2019-02-28T16:27:54.519Z,17.05
2019-02-28T16:28:54.484Z,17.03
2019-02-28T16:29:55.614Z,16.95
2019-02-28T16:30:54.507Z,16.92
2019-02-28T16:31:54.540Z,16.83
2019-02-28T16:32:54.526Z,16.94
2019-02-28T16:33:57.729Z,17.09
2019-02-28T16:34:54.513Z,17.13
2019-02-28T16:35:54.549Z,17.06
2019-02-28T16:36:57.408Z,17.16
2019-02-28T16:37:54.574Z,17.21
2019-02-28T16:38:54.355Z,17.20
2019-02-28T16:39:54.353Z,17.14
2019-02-28T16:40:57.688Z,17.07
2019-02-28T16:41:54.605Z,16.98
2019-02-28T16:42:54.418Z,16.88
2019-02-28T16:43:55.570Z,16.75
2019-02-28T16:44:54.400Z,16.71
2019-02-28T16:45:54.411Z,16.66
2019-02-28T16:46:54.866Z,16.65
2019-02-28T16:47:55.611Z,16.57
2019-02-28T16:48:54.434Z,16.50
2019-02-28T16:49:54.900Z,16.53
2019-02-28T16:50:56.770Z,16.46
2019-02-28T16:51:54.656Z,16.46
2019-02-28T16:52:54.484Z,16.44
2019-02-28T16:53:54.470Z,16.41
2019-02-28T16:54:56.305Z,16.32
2019-02-28T16:55:54.523Z,16.20
2019-02-28T16:56:54.558Z,16.17
2019-02-28T16:57:54.783Z,16.20
2019-02-28T16:58:57.304Z,16.13
2019-02-28T16:59:54.724Z,16.07
2019-02-28T17:00:54.535Z,16.00
2019-02-28T17:01:54.834Z,15.96
2019-02-28T17:02:54.543Z,15.93
2019-02-28T17:03:54.529Z,15.88
2019-02-28T17:04:54.564Z,15.77
2019-02-28T17:05:54.559Z,15.62
2019-02-28T17:06:55.559Z,15.46
2019-02-28T17:07:54.676Z,15.07
2019-02-28T17:08:55.331Z,14.60
